Time;durP1;ratioP1;P1;durP2;ratioP2;P2;SDS_P1;SDS_P2;PMS_P1;PMS_P2;Temp;Humidity;BMP_temperature;BMP_pressure;BME280_temperature;BME280_humidity;BME280_pressure;Samples;Min_cycle;Max_cycle;Signal;HPM_P1;HPM_P2
2022/03/05 00:00:30;;;;;;;17.70;10.73;;;-0.10;99.90;;;;;;5059415;28;20118;-80
2022/03/05 00:02:57;;;;;;;13.45;8.75;;;-0.10;99.90;;;;;;5067495;28;20092;-79
2022/03/05 00:05:22;;;;;;;18.20;10.48;;;-0.20;99.90;;;;;;5066998;28;20048;-80
2022/03/05 00:07:48;;;;;;;15.40;10.75;;;-0.20;99.90;;;;;;5055679;28;20387;-79
2022/03/05 00:10:14;;;;;;;17.30;10.73;;;-0.20;99.90;;;;;;5065460;28;20049;-79
2022/03/05 00:12:40;;;;;;;15.32;10.57;;;-0.20;99.90;;;;;;5069041;28;20502;-79
2022/03/05 00:15:07;;;;;;;14.85;9.43;;;-0.20;99.90;;;;;;5069333;28;20094;-81
2022/03/05 00:17:32;;;;;;;19.05;11.38;;;-0.20;99.90;;;;;;5070776;28;20402;-81
2022/03/05 00:19:58;;;;;;;19.90;11.32;;;-0.20;99.90;;;;;;5070109;28;20037;-78
2022/03/05 00:22:24;;;;;;;19.48;11.38;;;-0.20;99.90;;;;;;5062125;28;20106;-80
2022/03/05 00:24:50;;;;;;;18.73;11.05;;;-0.30;99.90;;;;;;5061644;28;20490;-79
2022/03/05 00:27:16;;;;;;;15.50;9.30;;;-0.30;99.90;;;;;;5059443;28;20103;-80
2022/03/05 00:29:43;;;;;;;15.20;10.23;;;-0.30;99.90;;;;;;5059668;28;20052;-80
2022/03/05 00:32:09;;;;;;;18.92;10.43;;;-0.30;99.90;;;;;;5072546;28;20043;-79
2022/03/05 00:34:34;;;;;;;19.02;10.43;;;-0.30;99.90;;;;;;5074929;28;20037;-78
2022/03/05 00:37:00;;;;;;;19.30;11.82;;;-0.40;99.90;;;;;;5072802;28;20032;-78
2022/03/05 00:39:26;;;;;;;17.05;10.63;;;-0.40;99.90;;;;;;5067180;28;20048;-79
2022/03/05 00:41:51;;;;;;;17.35;10.38;;;-0.50;99.90;;;;;;5065209;28;20510;-82
2022/03/05 00:44:17;;;;;;;15.75;11.40;;;-0.50;99.90;;;;;;5075200;28;20048;-80
2022/03/05 00:46:43;;;;;;;21.17;11.52;;;-0.60;99.90;;;;;;5077751;28;20052;-77
2022/03/05 00:49:08;;;;;;;17.00;11.15;;;-0.60;99.90;;;;;;5066781;28;20055;-79
2022/03/05 00:51:34;;;;;;;19.42;11.57;;;-0.70;99.90;;;;;;5059314;28;20076;-79
2022/03/05 00:53:59;;;;;;;16.17;10.20;;;-0.70;99.90;;;;;;5063510;28;20051;-79
2022/03/05 00:56:25;;;;;;;18.48;11.60;;;-0.80;99.90;;;;;;5067798;28;20037;-79
2022/03/05 00:58:51;;;;;;;17.40;10.10;;;-0.70;99.90;;;;;;5070405;28;20080;-80
2022/03/05 01:01:16;;;;;;;15.00;10.20;;;-0.70;99.90;;;;;;5067969;28;20045;-79
2022/03/05 01:03:43;;;;;;;18.55;10.73;;;-0.70;99.90;;;;;;5070186;28;20045;-81
2022/03/05 01:06:08;;;;;;;15.27;9.55;;;-0.70;99.90;;;;;;5070287;28;20041;-80
2022/03/05 01:08:34;;;;;;;16.42;10.80;;;-0.70;99.90;;;;;;5069597;28;20056;-80
2022/03/05 01:11:00;;;;;;;19.30;12.32;;;-0.80;99.90;;;;;;5069931;28;20037;-81
2022/03/05 01:13:26;;;;;;;16.55;9.90;;;-0.80;99.90;;;;;;5069312;28;20101;-81
2022/03/05 01:15:52;;;;;;;18.30;12.63;;;-0.80;99.90;;;;;;5070035;28;20032;-80
2022/03/05 01:18:17;;;;;;;16.20;10.50;;;-0.70;99.90;;;;;;5069721;28;20097;-80
2022/03/05 01:20:43;;;;;;;17.50;11.35;;;-0.80;99.90;;;;;;5069025;28;20120;-79
2022/03/05 01:23:08;;;;;;;16.13;10.55;;;-0.80;99.90;;;;;;5067481;28;20045;-79
2022/03/05 01:25:34;;;;;;;17.42;10.75;;;-0.80;99.90;;;;;;5068774;28;20048;-80
2022/03/05 01:28:00;;;;;;;22.45;10.50;;;-0.80;99.90;;;;;;5066219;28;20048;-79
2022/03/05 01:30:26;;;;;;;17.05;11.75;;;-0.80;99.90;;;;;;5067104;28;20491;-74
2022/03/05 01:32:51;;;;;;;15.93;9.73;;;-0.80;99.90;;;;;;5067284;28;20044;-79
2022/03/05 01:35:18;;;;;;;18.85;11.93;;;-0.80;99.90;;;;;;5068807;28;20075;-79
2022/03/05 01:37:43;;;;;;;16.83;9.50;;;-0.80;99.90;;;;;;5068284;28;20037;-79
2022/03/05 01:40:10;;;;;;;15.75;10.43;;;-0.90;99.90;;;;;;5060382;28;20483;-79
2022/03/05 01:42:35;;;;;;;20.10;11.23;;;-0.90;99.90;;;;;;5067622;28;20037;-79
2022/03/05 01:45:01;;;;;;;18.33;9.50;;;-0.90;99.90;;;;;;5064937;28;20098;-80
2022/03/05 01:47:27;;;;;;;16.25;10.07;;;-0.90;99.90;;;;;;5063797;28;20045;-80
2022/03/05 01:49:53;;;;;;;13.75;9.93;;;-0.90;99.90;;;;;;5051547;28;20076;-80
2022/03/05 01:52:19;;;;;;;21.95;11.40;;;-0.80;99.90;;;;;;5055168;28;20075;-79
2022/03/05 01:54:45;;;;;;;20.75;10.95;;;-0.80;99.90;;;;;;5064576;28;20045;-80
2022/03/05 01:57:11;;;;;;;23.00;11.88;;;-0.80;99.90;;;;;;5069415;28;20110;-79
2022/03/05 01:59:37;;;;;;;16.48;9.70;;;-0.80;99.90;;;;;;5056793;28;20084;-80
2022/03/05 02:02:04;;;;;;;18.45;9.68;;;-0.80;99.90;;;;;;5056185;28;20072;-79
2022/03/05 02:04:29;;;;;;;18.95;9.70;;;-0.70;99.90;;;;;;5062301;28;20037;-82
2022/03/05 02:06:55;;;;;;;13.20;10.32;;;-0.80;99.90;;;;;;5069856;28;20052;-81
2022/03/05 02:09:21;;;;;;;16.58;9.27;;;-0.80;99.90;;;;;;5068411;28;20102;-80
2022/03/05 02:11:47;;;;;;;14.75;9.15;;;-0.80;99.90;;;;;;5069303;28;20041;-80
2022/03/05 02:14:17;;;;;;;15.35;9.52;;;-0.80;99.90;;;;;;5072933;28;20090;-80
2022/03/05 02:16:43;;;;;;;;;;;-0.80;99.90;;;;;;5066227;28;20517;-80
2022/03/05 02:19:09;;;;;;;17.20;8.68;;;-0.80;99.90;;;;;;5068627;28;19924;-78
2022/03/05 02:21:36;;;;;;;13.98;8.55;;;-0.90;99.90;;;;;;5069666;28;20071;-80
2022/03/05 02:24:02;;;;;;;16.50;9.48;;;-0.90;99.90;;;;;;5064525;28;20046;-80
2022/03/05 02:26:28;;;;;;;12.90;8.77;;;-0.90;99.90;;;;;;5057629;28;20036;-79
2022/03/05 02:28:54;;;;;;;14.50;9.88;;;-1.00;99.90;;;;;;5067779;28;20093;-80
2022/03/05 02:31:19;;;;;;;17.08;8.88;;;-1.00;99.90;;;;;;5067725;28;20534;-80
2022/03/05 02:33:45;;;;;;;13.90;9.27;;;-1.00;99.90;;;;;;5067641;28;20114;-80
2022/03/05 02:36:11;;;;;;;15.38;8.32;;;-1.00;99.90;;;;;;5067989;28;20040;-79
2022/03/05 02:38:36;;;;;;;12.02;8.70;;;-1.10;99.90;;;;;;5069555;28;20045;-80
2022/03/05 02:41:02;;;;;;;11.60;8.13;;;-1.00;99.90;;;;;;5065797;28;20047;-80
2022/03/05 02:43:28;;;;;;;16.42;8.88;;;-1.10;99.90;;;;;;5066431;28;20047;-79
2022/03/05 02:45:54;;;;;;;13.70;8.13;;;-1.00;99.90;;;;;;5071227;28;20055;-79
2022/03/05 02:48:21;;;;;;;16.00;9.35;;;-1.00;99.90;;;;;;5071955;28;20048;-80
2022/03/05 02:50:48;;;;;;;18.23;9.07;;;-1.10;99.90;;;;;;5060328;28;20464;-79
2022/03/05 02:53:14;;;;;;;12.32;7.80;;;-1.20;99.90;;;;;;5068953;28;20037;-79
2022/03/05 02:55:40;;;;;;;14.25;8.63;;;-1.20;99.90;;;;;;5062670;28;20110;-79
2022/03/05 02:58:06;;;;;;;14.07;7.60;;;-1.20;99.90;;;;;;5057955;28;20079;-78
2022/03/05 03:00:32;;;;;;;13.63;8.65;;;-1.30;99.90;;;;;;5072019;28;20064;-79
2022/03/05 03:02:58;;;;;;;15.05;8.48;;;-1.40;99.90;;;;;;5064376;28;20100;-80
2022/03/05 03:05:24;;;;;;;13.77;9.43;;;-1.40;99.90;;;;;;5067838;28;20135;-80
2022/03/05 03:07:51;;;;;;;15.65;9.27;;;-1.40;99.90;;;;;;5063676;28;20055;-78
2022/03/05 03:10:17;;;;;;;12.57;7.63;;;-1.40;99.90;;;;;;5065588;28;20040;-79
2022/03/05 03:12:43;;;;;;;14.43;7.65;;;-1.50;99.90;;;;;;5068317;28;20040;-79
2022/03/05 03:15:11;;;;;;;15.68;7.85;;;-1.50;99.90;;;;;;5066317;28;20478;-79
2022/03/05 03:17:45;;;;;;;15.70;8.75;;;-1.50;99.90;;;;;;5071431;28;20055;-79
2022/03/05 03:20:12;;;;;;;16.95;9.68;;;-1.50;99.90;;;;;;5070548;28;20059;-79
2022/03/05 03:22:38;;;;;;;15.32;9.88;;;-1.60;99.90;;;;;;5070555;28;20039;-79
2022/03/05 03:25:05;;;;;;;17.48;8.82;;;-1.60;99.90;;;;;;5069319;28;20048;-79
2022/03/05 03:27:31;;;;;;;14.68;7.30;;;-1.60;99.90;;;;;;5067005;28;20072;-79
2022/03/05 03:29:57;;;;;;;12.98;8.25;;;-1.60;99.90;;;;;;5061239;28;20044;-79
2022/03/05 03:32:23;;;;;;;18.15;9.93;;;-1.60;99.90;;;;;;5060274;28;20398;-78
2022/03/05 03:34:48;;;;;;;12.60;8.20;;;-1.60;99.90;;;;;;5071157;28;20048;-79
2022/03/05 03:37:14;;;;;;;16.27;8.98;;;-1.60;99.90;;;;;;5071890;28;20036;-80
2022/03/05 03:39:40;;;;;;;13.60;9.27;;;-1.70;99.90;;;;;;5062250;28;20045;-81
2022/03/05 03:42:06;;;;;;;14.73;8.68;;;-1.60;99.90;;;;;;5052178;28;20045;-78
2022/03/05 03:44:31;;;;;;;16.98;10.00;;;-1.70;99.90;;;;;;5056708;28;20041;-79
2022/03/05 03:46:57;;;;;;;15.75;9.32;;;-1.70;99.90;;;;;;5069461;28;20053;-79
2022/03/05 03:49:23;;;;;;;15.07;7.85;;;-1.70;99.90;;;;;;5061708;28;20507;-79
2022/03/05 03:51:49;;;;;;;20.08;10.07;;;-1.60;99.90;;;;;;5072251;28;20048;-79
2022/03/05 03:54:15;;;;;;;16.92;8.63;;;-1.60;99.90;;;;;;5069121;28;20049;-79
2022/03/05 03:56:40;;;;;;;18.98;9.95;;;-1.70;99.90;;;;;;5062956;28;20526;-78
2022/03/05 03:59:06;;;;;;;14.45;8.90;;;-1.70;99.90;;;;;;5065697;28;20044;-80
2022/03/05 04:01:32;;;;;;;17.88;8.77;;;-1.60;99.90;;;;;;5069963;28;20070;-79
2022/03/05 04:03:57;;;;;;;15.43;8.13;;;-1.70;99.90;;;;;;5068716;28;20462;-79
2022/03/05 04:06:23;;;;;;;15.85;9.07;;;-1.70;99.90;;;;;;5065591;28;20068;-79
2022/03/05 04:08:48;;;;;;;20.42;10.45;;;-1.70;99.90;;;;;;5070265;28;20076;-79
2022/03/05 04:11:18;;;;;;;14.85;9.27;;;-1.60;99.90;;;;;;5069877;28;20045;-80
2022/03/05 04:13:45;;;;;;;18.70;9.13;;;-1.60;99.90;;;;;;5067300;28;20387;-80
2022/03/05 04:16:11;;;;;;;16.80;8.82;;;-1.70;99.90;;;;;;5071237;28;20051;-80
2022/03/05 04:18:37;;;;;;;16.95;9.55;;;-1.60;99.90;;;;;;5061327;28;20098;-80
2022/03/05 04:21:04;;;;;;;17.17;9.23;;;-1.70;99.90;;;;;;5070471;28;20038;-80
2022/03/05 04:23:30;;;;;;;16.67;11.32;;;-1.60;99.90;;;;;;5068331;28;20120;-80
2022/03/05 04:25:56;;;;;;;12.93;8.15;;;-1.60;99.90;;;;;;5066163;28;20139;-74
2022/03/05 04:28:21;;;;;;;17.63;9.35;;;-1.60;99.90;;;;;;5064375;28;20056;-80
2022/03/05 04:30:47;;;;;;;14.15;8.77;;;-1.60;99.90;;;;;;5064321;28;20042;-78
2022/03/05 04:33:13;;;;;;;12.27;8.55;;;-1.60;99.90;;;;;;5067685;28;20074;-80
2022/03/05 04:35:38;;;;;;;15.38;8.50;;;-1.60;99.90;;;;;;5068604;28;20036;-80
2022/03/05 04:38:04;;;;;;;17.38;8.57;;;-1.60;99.90;;;;;;5069556;28;20047;-79
2022/03/05 04:40:30;;;;;;;15.90;9.05;;;-1.50;99.90;;;;;;5059381;28;20553;-80
2022/03/05 04:42:56;;;;;;;19.13;9.30;;;-1.60;99.90;;;;;;5053090;28;20131;-78
2022/03/05 04:45:22;;;;;;;14.32;8.50;;;-1.60;99.90;;;;;;5069980;28;20053;-80
2022/03/05 04:47:48;;;;;;;12.98;8.95;;;-1.80;99.90;;;;;;5069115;28;20052;-78
2022/03/05 04:50:14;;;;;;;16.17;9.60;;;-1.80;99.90;;;;;;5068561;28;20554;-79
2022/03/05 04:52:40;;;;;;;14.50;9.02;;;-1.80;99.90;;;;;;5067370;28;20131;-79
2022/03/05 04:55:07;;;;;;;16.52;9.00;;;-1.80;99.90;;;;;;5060067;28;20520;-79
2022/03/05 04:57:33;;;;;;;14.90;8.93;;;-1.70;99.90;;;;;;5051688;28;20037;-77
2022/03/05 04:59:59;;;;;;;16.42;9.48;;;-1.70;99.90;;;;;;5068590;28;20191;-81
2022/03/05 05:02:24;;;;;;;19.20;10.18;;;-1.70;99.90;;;;;;5068607;28;20040;-81
2022/03/05 05:04:50;;;;;;;15.38;10.27;;;-1.70;99.90;;;;;;5069455;28;20043;-80
2022/03/05 05:07:16;;;;;;;19.10;9.57;;;-1.60;99.90;;;;;;5053913;28;20128;-77
2022/03/05 05:09:42;;;;;;;12.55;8.10;;;-1.60;99.90;;;;;;5060455;28;20091;-77
2022/03/05 05:12:08;;;;;;;17.02;10.70;;;-1.70;99.90;;;;;;5068895;28;20078;-77
2022/03/05 05:14:34;;;;;;;16.17;8.60;;;-1.70;99.90;;;;;;5052226;28;20045;-79
2022/03/05 05:17:00;;;;;;;15.18;8.57;;;-1.70;99.90;;;;;;5070789;28;20047;-77
2022/03/05 05:19:27;;;;;;;15.82;8.77;;;-1.70;99.90;;;;;;5068675;28;20044;-72
2022/03/05 05:22:03;;;;;;;15.32;8.70;;;-1.70;99.90;;;;;;5058469;28;20091;-78
2022/03/05 05:24:34;;;;;;;17.90;8.15;;;-1.70;99.90;;;;;;5069118;28;20048;-77
2022/03/05 05:27:01;;;;;;;15.43;9.27;;;-1.70;99.90;;;;;;5064292;28;20123;-78
2022/03/05 05:29:27;;;;;;;13.52;8.65;;;-1.70;99.90;;;;;;5064623;28;20079;-73
2022/03/05 05:31:52;;;;;;;14.45;9.05;;;-1.80;99.90;;;;;;5051534;28;20064;-77
2022/03/05 05:34:18;;;;;;;17.35;7.57;;;-1.80;99.90;;;;;;5049207;28;20084;-77
2022/03/05 05:36:44;;;;;;;13.45;7.70;;;-1.80;99.90;;;;;;5054628;28;20510;-78
2022/03/05 05:39:11;;;;;;;11.82;7.72;;;-1.80;99.90;;;;;;5064711;28;20784;-78
2022/03/05 05:41:38;;;;;;;14.13;9.38;;;-1.90;99.90;;;;;;5062492;28;20071;-78
2022/03/05 05:44:05;;;;;;;16.60;8.93;;;-1.90;99.90;;;;;;5064973;28;20048;-79
2022/03/05 05:46:31;;;;;;;15.23;7.05;;;-1.90;99.90;;;;;;5070736;28;20048;-79
2022/03/05 05:48:57;;;;;;;15.70;8.30;;;-1.90;99.90;;;;;;5063265;28;20052;-79
2022/03/05 05:51:27;;;;;;;16.17;8.52;;;-1.90;99.90;;;;;;5055947;28;20033;-79
2022/03/05 05:53:53;;;;;;;;;;;-1.90;99.90;;;;;;5066683;28;20548;-78
2022/03/05 05:56:18;;;;;;;13.48;8.77;;;-2.10;99.90;;;;;;5069823;28;19916;-78
2022/03/05 05:58:45;;;;;;;16.38;8.50;;;-2.30;99.90;;;;;;5067579;28;20028;-78
2022/03/05 06:01:11;;;;;;;15.35;8.98;;;-2.40;99.90;;;;;;5069005;28;20039;-78
2022/03/05 06:03:37;;;;;;;16.33;8.88;;;-2.40;99.90;;;;;;5064642;28;20044;-79
2022/03/05 06:06:02;;;;;;;12.77;8.77;;;-2.40;99.90;;;;;;5071218;28;20052;-79
2022/03/05 06:08:28;;;;;;;18.50;8.73;;;-2.40;99.90;;;;;;5060824;28;20040;-74
2022/03/05 06:10:57;;;;;;;12.27;7.53;;;-2.40;99.90;;;;;;5058806;28;20036;-77
2022/03/05 06:13:23;;;;;;;14.73;8.65;;;-2.30;99.90;;;;;;5078311;28;20040;-78
2022/03/05 06:15:49;;;;;;;14.35;9.30;;;-2.20;99.90;;;;;;5056787;28;20131;-78
2022/03/05 06:18:15;;;;;;;15.45;9.02;;;-2.20;99.90;;;;;;5064937;28;20049;-77
2022/03/05 06:20:40;;;;;;;16.38;9.95;;;-2.20;99.90;;;;;;5051990;28;20056;-77
2022/03/05 06:23:06;;;;;;;16.90;10.40;;;-2.00;99.90;;;;;;5070016;28;20036;-77
2022/03/05 06:25:32;;;;;;;15.60;8.75;;;-2.00;99.90;;;;;;5071577;28;20101;-78
2022/03/05 06:27:58;;;;;;;14.88;8.68;;;-1.90;99.90;;;;;;5057663;28;20076;-79
2022/03/05 06:30:23;;;;;;;16.45;10.82;;;-1.80;99.90;;;;;;5072422;28;20419;-78
2022/03/05 06:32:49;;;;;;;15.25;9.57;;;-1.80;99.90;;;;;;5070432;28;20122;-79
2022/03/05 06:35:15;;;;;;;14.63;7.82;;;-1.80;99.90;;;;;;5058478;28;20135;-77
2022/03/05 06:37:41;;;;;;;15.32;9.88;;;-1.80;99.90;;;;;;5066769;28;20048;-77
2022/03/05 06:40:10;;;;;;;12.60;8.48;;;-1.80;99.90;;;;;;5069898;28;20068;-77
2022/03/05 06:42:36;;;;;;;16.65;9.65;;;-1.80;99.90;;;;;;5071075;28;20045;-77
2022/03/05 06:45:03;;;;;;;16.40;8.00;;;-1.80;99.90;;;;;;5072582;28;20044;-78
2022/03/05 06:47:30;;;;;;;16.13;9.98;;;-1.80;99.90;;;;;;5064020;28;20049;-78
2022/03/05 06:49:56;;;;;;;14.15;8.77;;;-1.80;99.90;;;;;;5071134;28;20052;-73
2022/03/05 06:52:22;;;;;;;16.60;8.10;;;-1.70;99.90;;;;;;5068511;28;20482;-79
2022/03/05 06:54:48;;;;;;;16.98;8.95;;;-1.70;99.90;;;;;;5069966;28;20055;-77
2022/03/05 06:57:14;;;;;;;14.13;8.80;;;-1.70;99.90;;;;;;5073088;28;20040;-76
2022/03/05 06:59:39;;;;;;;14.48;8.02;;;-1.60;99.90;;;;;;5068626;28;20127;-79
2022/03/05 07:02:05;;;;;;;12.80;9.48;;;-1.50;99.90;;;;;;5072206;28;20039;-79
2022/03/05 07:04:31;;;;;;;12.13;7.40;;;-1.50;99.90;;;;;;5067604;28;20063;-81
2022/03/05 07:06:56;;;;;;;13.52;8.02;;;-1.50;99.90;;;;;;5059389;28;20045;-76
2022/03/05 07:09:22;;;;;;;12.30;7.78;;;-1.40;99.90;;;;;;5062328;28;20037;-79
2022/03/05 07:11:47;;;;;;;13.88;8.00;;;-1.30;99.90;;;;;;5070826;28;20053;-79
2022/03/05 07:14:13;;;;;;;11.00;6.63;;;-1.30;99.90;;;;;;5071530;28;20038;-78
2022/03/05 07:16:38;;;;;;;14.88;7.80;;;-1.20;99.90;;;;;;5055613;28;20561;-78
2022/03/05 07:19:04;;;;;;;17.33;9.35;;;-1.20;99.90;;;;;;5067772;28;20143;-79
2022/03/05 07:21:30;;;;;;;12.68;7.80;;;-1.10;99.90;;;;;;5071533;28;20516;-79
2022/03/05 07:23:58;;;;;;;17.60;8.25;;;-1.10;99.90;;;;;;5065485;28;20458;-77
2022/03/05 07:26:24;;;;;;;13.18;8.45;;;-1.10;99.90;;;;;;5070692;28;20063;-78
2022/03/05 07:28:50;;;;;;;14.50;8.10;;;-0.90;99.90;;;;;;5059948;28;20045;-79
2022/03/05 07:31:16;;;;;;;14.65;8.57;;;-0.90;99.90;;;;;;5062792;28;20045;-78
2022/03/05 07:33:41;;;;;;;13.75;7.63;;;-0.80;99.90;;;;;;5071534;28;20147;-78
2022/03/05 07:36:07;;;;;;;13.88;7.38;;;-0.80;99.90;;;;;;5066962;28;20033;-80
2022/03/05 07:38:34;;;;;;;11.65;7.30;;;-0.80;99.90;;;;;;5061750;28;20055;-78
2022/03/05 07:40:59;;;;;;;14.80;8.38;;;-0.70;99.90;;;;;;5069702;28;20338;-78
2022/03/05 07:43:25;;;;;;;13.75;6.97;;;-0.60;99.90;;;;;;5062955;28;20041;-79
2022/03/05 07:45:51;;;;;;;14.35;7.80;;;-0.50;99.90;;;;;;5070844;28;20497;-79
2022/03/05 07:48:21;;;;;;;10.63;8.10;;;-0.50;99.90;;;;;;5059063;28;20044;-78
2022/03/05 07:50:48;;;;;;;16.05;7.72;;;-0.40;99.90;;;;;;5070875;28;20124;-80
2022/03/05 07:53:14;;;;;;;14.25;8.10;;;-0.30;99.90;;;;;;5065753;28;20048;-77
2022/03/05 07:55:40;;;;;;;10.90;7.55;;;-0.30;99.90;;;;;;5058414;28;20494;-81
2022/03/05 07:58:05;;;;;;;12.38;8.02;;;-0.30;99.90;;;;;;5070213;28;20099;-79
2022/03/05 08:00:31;;;;;;;17.20;10.38;;;-0.10;99.90;;;;;;5065767;28;20033;-79
2022/03/05 08:02:57;;;;;;;12.32;7.85;;;0.00;99.90;;;;;;5069613;28;20499;-78
2022/03/05 08:05:22;;;;;;;12.68;7.30;;;0.00;99.90;;;;;;5060583;28;20117;-82
2022/03/05 08:07:48;;;;;;;12.45;8.45;;;0.10;99.90;;;;;;5069679;28;20589;-81
2022/03/05 08:10:14;;;;;;;11.50;7.55;;;0.10;99.90;;;;;;5054473;28;20063;-79
2022/03/05 08:12:40;;;;;;;18.08;9.10;;;0.20;99.90;;;;;;5053502;28;20093;-79
2022/03/05 08:15:06;;;;;;;17.92;8.32;;;0.30;99.90;;;;;;5070773;28;20086;-81
2022/03/05 08:17:32;;;;;;;12.40;9.93;;;0.40;99.90;;;;;;5049462;28;20040;-79
2022/03/05 08:19:58;;;;;;;12.80;8.48;;;0.50;99.90;;;;;;5059154;28;20056;-78
2022/03/05 08:22:25;;;;;;;16.40;8.32;;;0.50;99.90;;;;;;5059130;28;20040;-78
2022/03/05 08:24:50;;;;;;;15.70;8.75;;;0.50;99.90;;;;;;5062986;28;20394;-78
2022/03/05 08:27:16;;;;;;;15.13;8.55;;;0.60;99.90;;;;;;5071016;28;20048;-79
2022/03/05 08:29:42;;;;;;;14.13;8.82;;;0.70;99.90;;;;;;5057291;28;20044;-79
2022/03/05 08:32:08;;;;;;;16.95;9.27;;;0.80;99.90;;;;;;5051066;28;20399;-78
2022/03/05 08:34:34;;;;;;;12.73;9.18;;;0.90;99.90;;;;;;5060046;28;20053;-79
2022/03/05 08:37:00;;;;;;;30.67;10.02;;;1.00;99.90;;;;;;5069434;28;20049;-81
2022/03/05 08:39:27;;;;;;;17.20;9.48;;;1.10;99.90;;;;;;5062854;28;20059;-75
2022/03/05 08:41:53;;;;;;;13.07;7.70;;;1.20;99.90;;;;;;5056189;28;20068;-78
2022/03/05 08:44:18;;;;;;;15.80;8.93;;;1.20;99.90;;;;;;5066013;28;20056;-82
2022/03/05 08:46:44;;;;;;;16.90;10.77;;;1.30;99.90;;;;;;5061135;28;20044;-78
2022/03/05 08:49:10;;;;;;;14.55;9.25;;;1.30;99.90;;;;;;5069420;28;20044;-78
2022/03/05 08:51:35;;;;;;;13.35;9.50;;;1.60;99.90;;;;;;5059096;28;20098;-81
2022/03/05 08:54:01;;;;;;;19.52;12.18;;;1.60;99.90;;;;;;5069418;28;20037;-79
2022/03/05 08:56:27;;;;;;;20.63;12.50;;;1.70;99.90;;;;;;5069363;28;20040;-79
2022/03/05 08:58:52;;;;;;;15.45;10.35;;;1.70;99.90;;;;;;5068722;28;20554;-81
2022/03/05 09:01:18;;;;;;;17.17;11.98;;;1.70;99.90;;;;;;5066335;28;20501;-79
2022/03/05 09:03:44;;;;;;;19.77;13.10;;;1.80;99.90;;;;;;5067819;28;20055;-82
2022/03/05 09:06:09;;;;;;;21.48;12.60;;;1.80;99.90;;;;;;5069865;28;20384;-81
2022/03/05 09:08:37;;;;;;;20.38;11.70;;;1.90;99.90;;;;;;5071267;28;20048;-81
2022/03/05 09:11:04;;;;;;;15.82;10.80;;;1.90;99.90;;;;;;5068760;28;20048;-86
2022/03/05 09:13:30;;;;;;;23.95;13.02;;;2.00;99.90;;;;;;5079431;28;20040;-79
2022/03/05 09:15:55;;;;;;;18.15;11.23;;;2.10;99.90;;;;;;5072649;28;20414;-75
2022/03/05 09:18:21;;;;;;;23.33;11.75;;;2.20;99.90;;;;;;5067007;28;20044;-79
2022/03/05 09:20:47;;;;;;;19.48;12.27;;;2.20;99.90;;;;;;5056218;28;20052;-90
2022/03/05 09:23:14;;;;;;;24.85;14.07;;;2.20;99.90;;;;;;5068365;28;20048;-89
2022/03/05 09:25:40;;;;;;;25.60;12.90;;;2.20;99.90;;;;;;5070961;28;20459;-86
2022/03/05 09:28:06;;;;;;;20.95;12.10;;;2.20;99.90;;;;;;5068555;28;20067;-81
2022/03/05 09:30:32;;;;;;;19.50;12.65;;;2.30;99.90;;;;;;5069414;28;20441;-83
2022/03/05 09:32:57;;;;;;;18.98;12.70;;;2.40;99.90;;;;;;5066939;28;20486;-83
2022/03/05 09:35:23;;;;;;;20.25;12.25;;;2.40;99.90;;;;;;5065834;28;20044;-81
2022/03/05 09:37:49;;;;;;;21.83;13.23;;;2.60;99.90;;;;;;5063548;28;20041;-84
2022/03/05 09:40:15;;;;;;;22.95;12.50;;;2.50;99.90;;;;;;5065550;28;20889;-87
2022/03/05 09:42:44;;;;;;;19.17;11.57;;;2.60;99.90;;;;;;5053027;28;20036;-88
2022/03/05 09:45:12;;;;;;;21.67;13.57;;;2.70;99.90;;;;;;5071888;28;20075;-85
2022/03/05 09:47:40;;;;;;;19.13;12.63;;;2.70;99.90;;;;;;5070714;28;20083;-81
2022/03/05 09:50:07;;;;;;;20.33;13.57;;;2.80;99.90;;;;;;5063631;28;20506;-83
2022/03/05 09:52:33;;;;;;;24.52;14.98;;;2.90;99.90;;;;;;5051998;28;20044;-83
2022/03/05 09:54:59;;;;;;;22.25;14.25;;;2.80;99.90;;;;;;5066402;28;20074;-81
2022/03/05 09:57:25;;;;;;;25.33;14.48;;;2.90;99.90;;;;;;5067346;28;20486;-83
2022/03/05 09:59:50;;;;;;;18.67;13.70;;;2.90;99.90;;;;;;5068463;28;20036;-82
2022/03/05 10:02:17;;;;;;;24.98;14.88;;;2.90;99.90;;;;;;5068725;28;20040;-81
2022/03/05 10:04:43;;;;;;;21.35;13.55;;;3.10;99.90;;;;;;5069627;28;20402;-83
2022/03/05 10:07:10;;;;;;;21.42;14.77;;;2.90;99.90;;;;;;5043472;28;20044;-79
2022/03/05 10:09:37;;;;;;;23.25;13.15;;;3.00;99.90;;;;;;5064466;28;20120;-82
2022/03/05 10:12:32;;;;;;;19.27;13.60;;;3.20;99.90;;;;;;5072179;28;20048;-83
2022/03/05 10:15:10;;;;;;;26.27;16.33;;;3.30;99.90;;;;;;5087404;28;20040;-83
2022/03/05 10:17:55;;;;;;;24.08;14.50;;;3.40;99.90;;;;;;5077640;28;20248;-80
2022/03/05 10:20:27;;;;;;;22.20;14.63;;;3.30;99.90;;;;;;5064149;28;20052;-83
2022/03/05 10:23:06;;;;;;;21.98;14.07;;;3.30;99.90;;;;;;5063859;28;20036;-82
2022/03/05 10:25:42;;;;;;;21.83;13.75;;;3.40;99.90;;;;;;5061121;28;20040;-81
2022/03/05 10:28:19;;;;;;;26.80;15.40;;;3.50;99.90;;;;;;5067224;28;20119;-81
2022/03/05 10:30:50;;;;;;;21.50;13.80;;;3.80;99.90;;;;;;5067447;28;20044;-81
2022/03/05 10:33:43;;;;;;;23.67;13.35;;;3.80;99.90;;;;;;5065221;28;20059;-82
2022/03/05 10:36:16;;;;;;;23.10;14.23;;;3.60;99.90;;;;;;5064150;28;20082;-81
2022/03/05 10:38:53;;;;;;;21.63;15.27;;;3.80;99.90;;;;;;5056382;28;20329;-81
2022/03/05 10:41:40;;;;;;;22.98;16.02;;;3.90;99.90;;;;;;5051907;28;20119;-82
2022/03/05 10:44:13;;;;;;;25.85;14.75;;;3.80;99.90;;;;;;5063583;28;20131;-82
2022/03/05 10:46:43;;;;;;;25.33;17.13;;;4.00;99.90;;;;;;5063842;28;20083;-81
2022/03/05 10:49:16;;;;;;;29.63;14.63;;;3.90;99.90;;;;;;5068948;28;20078;-84
2022/03/05 10:51:51;;;;;;;22.33;13.30;;;3.90;99.90;;;;;;5050457;28;20240;-82
2022/03/05 10:54:27;;;;;;;27.40;15.13;;;4.00;99.90;;;;;;5058282;28;20041;-84
2022/03/05 10:57:07;;;;;;;21.85;13.35;;;3.90;99.90;;;;;;5071510;28;20117;-82
2022/03/05 10:59:41;;;;;;;21.52;14.23;;;3.80;99.90;;;;;;5051811;28;20132;-83
2022/03/05 11:02:07;;;;;;;23.63;13.55;;;4.10;99.90;;;;;;5059255;28;20052;-81
2022/03/05 11:04:39;;;;;;;25.15;14.52;;;4.20;99.90;;;;;;5068538;28;20048;-82
2022/03/05 11:07:07;;;;;;;23.98;14.80;;;4.30;99.90;;;;;;5070008;28;20103;-84
2022/03/05 11:09:34;;;;;;;23.67;15.05;;;4.50;99.90;;;;;;5072915;28;20434;-86
2022/03/05 11:12:00;;;;;;;27.08;15.40;;;4.30;99.90;;;;;;5076709;28;20430;-83
2022/03/05 11:14:27;;;;;;;22.23;14.50;;;4.40;99.90;;;;;;5065797;28;20036;-77
2022/03/05 11:16:53;;;;;;;24.17;15.05;;;4.40;99.90;;;;;;5070695;28;20052;-80
2022/03/05 11:19:22;;;;;;;21.42;13.85;;;4.40;99.90;;;;;;5070918;28;20036;-82
2022/03/05 11:21:47;;;;;;;25.92;17.02;;;4.60;99.90;;;;;;5064345;28;20063;-82
2022/03/05 11:24:15;;;;;;;21.90;14.30;;;4.70;99.90;;;;;;5064839;28;22119;-76
2022/03/05 11:26:41;;;;;;;26.08;16.63;;;4.60;99.90;;;;;;5071449;28;20431;-77
2022/03/05 11:29:07;;;;;;;27.30;17.95;;;4.60;99.90;;;;;;5072964;28;20044;-79
2022/03/05 11:31:34;;;;;;;25.95;16.50;;;4.70;99.90;;;;;;5073687;28;20524;-79
2022/03/05 11:34:15;;;;;;;25.50;15.00;;;4.60;99.90;;;;;;5070840;28;20131;-79
2022/03/05 11:36:42;;;;;;;24.27;17.27;;;4.60;99.90;;;;;;5058732;28;20049;-79
2022/03/05 11:39:08;;;;;;;27.30;17.23;;;4.50;99.90;;;;;;5057153;28;20434;-80
2022/03/05 11:41:49;;;;;;;22.73;15.23;;;4.60;99.90;;;;;;5060281;28;20033;-80
2022/03/05 11:44:16;;;;;;;22.70;14.15;;;4.70;99.90;;;;;;5069609;28;20097;-79
2022/03/05 11:46:42;;;;;;;26.63;14.45;;;4.90;99.90;;;;;;5065573;28;20478;-81
2022/03/05 11:49:13;;;;;;;23.15;14.32;;;4.70;99.90;;;;;;5071765;28;20040;-78
2022/03/05 11:51:58;;;;;;;24.98;15.90;;;4.80;99.90;;;;;;5058651;28;20047;-78
2022/03/05 11:54:25;;;;;;;23.55;13.60;;;4.90;99.90;;;;;;5060423;28;20040;-82
2022/03/05 11:57:16;;;;;;;24.25;15.07;;;4.80;99.90;;;;;;5051989;28;20087;-80
2022/03/05 11:59:50;;;;;;;24.00;15.73;;;4.90;99.90;;;;;;5060485;28;20048;-77
2022/03/05 12:02:36;;;;;;;23.42;13.40;;;5.00;99.90;;;;;;5070459;28;20052;-79
2022/03/05 12:05:01;;;;;;;25.80;15.20;;;5.00;99.90;;;;;;5065707;28;20063;-81
2022/03/05 12:07:35;;;;;;;21.83;14.63;;;5.10;99.90;;;;;;5059023;28;20036;-80
2022/03/05 12:10:10;;;;;;;25.75;16.80;;;5.10;99.90;;;;;;5066279;28;20059;-78
2022/03/05 12:12:57;;;;;;;24.70;14.77;;;5.30;99.90;;;;;;5069783;28;20071;-78
2022/03/05 12:15:45;;;;;;;22.75;13.77;;;5.10;99.90;;;;;;5069977;28;20055;-77
2022/03/05 12:18:14;;;;;;;24.98;14.57;;;5.10;99.90;;;;;;5069173;28;20044;-77
2022/03/05 12:20:43;;;;;;;20.63;14.23;;;5.20;99.90;;;;;;5069249;28;20482;-76
2022/03/05 12:23:11;;;;;;;23.90;16.50;;;5.20;99.90;;;;;;5057643;28;20193;-77
2022/03/05 12:25:38;;;;;;;24.95;15.05;;;5.30;99.90;;;;;;5057653;28;20546;-77
2022/03/05 12:28:06;;;;;;;25.45;16.13;;;5.20;99.90;;;;;;5061254;28;20037;-76
2022/03/05 12:30:37;;;;;;;23.95;14.40;;;5.50;99.90;;;;;;5070470;28;20074;-78
2022/03/05 12:33:08;;;;;;;24.17;16.15;;;5.50;99.90;;;;;;5069915;28;20047;-78
2022/03/05 12:35:35;;;;;;;25.70;16.38;;;5.40;99.90;;;;;;5070904;28;20083;-79